Latest Weather Observations for Ernabella/Pukatja

IDS60801

Issued at 3:35 pm CST Tuesday 23 September 2014 (issued every 30 minutes, with the page automatically refreshed every 10 minutes)

About weather observations | Map of weather stations | Latest weather observations for SA | Other Formats
Station Details ID: 016097 Name: PUKATJA Lat: -26.26 Lon: 132.18 Height: 703.2 m
Data from the previous 72 hours. | See also: Recent months at Ernabella/Pukatja
Date/Time
CST
Temp
°C
App
Temp
°C
Dew
Point
Rel
Hum
%
Delta-T
°C
Wind Press
QNH
hPa
Press
MSL
hPa
Rain
since 9 am
mm
Dir
 
Spd
km/h
Gust
km/h
Spd
kts
Gust
kts
23/03:30pm 21.3 14.2 1.6 27 9.4 WSW 28 43 15 23 1014.4 - 0.0
23/03:00pm 22.5 15.4 -0.9 21 10.8 W 26 41 14 22 1014.4 1011.8 0.0
23/02:30pm 22.1 16.5 0.0 23 10.3 SSW 19 32 10 17 1014.1 - 0.0
23/02:00pm 21.9 16.0 -0.8 22 10.4 WNW 20 30 11 16 1014.1 - 0.0
23/01:30pm 22.0 16.1 1.6 26 9.8 WSW 22 32 12 17 1014.1 - 0.0
23/01:00pm 20.9 14.3 2.2 29 9.0 SW 26 37 14 20 1014.2 - 0.0
23/12:30pm 20.3 15.4 2.2 30 8.7 SW 17 33 9 18 1014.5 - 0.0
23/12:00pm 20.4 15.3 3.2 32 8.4 S 19 28 10 15 1014.7 1012.1 0.0
23/11:30am 19.7 14.1 3.4 34 8.0 SSW 22 30 12 16 1015.3 - 0.0
23/11:00am 19.4 13.5 4.0 36 7.6 SW 24 37 13 20 1015.5 - 0.0
23/10:30am 18.1 14.1 2.8 36 7.3 SW 13 20 7 11 1015.5 - 0.0
23/10:00am 17.2 12.6 3.8 41 6.5 SW 17 24 9 13 1015.8 - 0.0
23/09:30am 16.4 9.9 4.8 46 5.7 SW 28 37 15 20 1015.9 - 0.0
23/09:00am 15.2 9.3 5.7 53 4.7 SW 26 33 14 18 1015.7 1013.1 0.0
23/08:30am 14.5 9.7 5.6 55 4.4 SSW 20 30 11 16 1015.6 - 0.0
23/08:00am 14.0 7.7 5.9 58 4.0 SW 28 35 15 19 1015.6 - 0.0
23/07:30am 13.9 6.7 5.8 58 4.0 SW 33 41 18 22 1015.3 - 0.0
23/07:00am 13.9 7.5 5.3 56 4.2 SW 28 37 15 20 1015.6 - 0.0
23/06:30am 15.4 9.4 -11.9 14 9.3 WSW 15 24 8 13 1015.0 - 0.0
23/06:00am 13.8 9.4 -10.8 17 8.4 WSW 7 13 4 7 1014.4 1011.8 0.0
23/05:30am 15.5 9.9 -11.0 15 9.3 NE 13 20 7 11 1013.8 - 0.0
23/05:00am 15.6 9.9 -11.8 14 9.4 NNE 13 20 7 11 1013.5 - 0.0
23/04:30am 16.4 9.6 -12.1 13 9.8 N 19 32 10 17 1013.5 - 0.0
23/04:00am 16.5 9.5 -12.0 13 9.9 NNE 20 41 11 22 1012.5 - 0.0
23/03:30am 17.0 10.5 -12.6 12 10.2 NNE 17 28 9 15 1012.3 - 0.0
23/03:00am 16.4 10.3 -13.0 12 10.0 NNE 15 24 8 13 1012.8 1010.2 0.0
23/02:30am 16.7 9.3 -12.8 12 10.1 NNE 22 30 12 16 1013.3 - 0.0
23/02:00am 17.1 9.2 -13.6 11 10.4 NNE 24 35 13 19 1014.1 - 0.0
23/01:30am 18.0 10.1 -14.0 10 10.8 NNE 24 35 13 19 1014.2 - 0.0
23/01:00am 17.7 11.6 -13.1 11 10.6 NE 15 24 8 13 1015.3 - 0.0
23/12:30am 18.6 11.1 -13.6 10 11.1 NE 22 33 12 18 1015.0 - 0.0
23/12:00am 18.7 11.6 -13.5 10 11.1 NE 20 32 11 17 1015.7 1013.1 0.0
 
Date/Time
CST
Temp
°C
App
Temp
°C
Dew
Point
Rel
Hum
%
Delta-T
°C
Wind Press
QNH
hPa
Press
MSL
hPa
Rain
since 9 am
mm
Dir
 
Spd
km/h
Gust
km/h
Spd
kts
Gust
kts
22/11:30pm 18.0 11.1 -14.0 10 10.8 NE 19 24 10 13 1016.1 - 0.0
22/11:00pm 16.9 10.8 -12.6 12 10.1 NE 15 19 8 10 1016.5 - 0.0
22/10:30pm 17.0 10.9 -12.6 12 10.2 NE 15 17 8 9 1016.7 - 0.0
22/10:00pm 18.4 11.5 -13.7 10 11.0 NE 19 22 10 12 1017.1 - 0.0
22/09:30pm 19.8 12.7 -13.9 9 11.7 NNE 20 26 11 14 1017.3 - 0.0
22/09:00pm 20.2 13.3 -13.6 9 11.8 NNE 19 28 10 15 1017.0 1014.4 0.0
22/08:30pm 20.5 13.6 -13.4 9 12.0 NNE 19 30 10 16 1017.0 - 0.0
22/08:00pm 20.9 13.9 -14.5 8 12.3 NE 19 26 10 14 1016.6 - 0.0
22/07:30pm 21.2 14.3 -14.3 8 12.4 NNE 19 26 10 14 1016.4 - 0.0
22/07:00pm 21.8 14.8 -15.5 7 12.9 NNE 19 26 10 14 1016.0 - 0.0
22/06:30pm 22.6 16.0 -14.9 7 13.2 NNE 17 30 9 16 1016.1 - 0.0
22/06:00pm 24.0 16.4 -15.7 6 14.0 NNE 22 35 12 19 1015.8 1013.2 0.0
22/05:30pm 24.7 16.0 -15.2 6 14.3 NNE 28 35 15 19 1015.5 - 0.0
22/05:00pm 25.3 17.3 -17.0 5 14.8 NE 24 39 13 21 1015.3 - 0.0
22/04:30pm 25.9 17.9 -16.6 5 15.1 NNE 24 35 13 19 1015.3 - 0.0
22/04:00pm 25.7 16.9 -16.7 5 15.0 NE 28 52 15 28 1015.9 - 0.0
22/03:52pm 26.0 17.2 -16.5 5 15.1 NE 28 52 15 28 1015.8 - 0.0
22/03:30pm 25.7 17.7 -16.7 5 15.0 NNE 24 35 13 19 1016.2 - 0.0
22/03:00pm 25.6 17.2 -16.8 5 14.9 NE 26 43 14 23 1016.6 1014.1 0.0
22/02:30pm 25.1 17.2 -15.0 6 14.5 N 24 43 13 23 1017.1 - 0.0
22/02:00pm 25.6 18.1 -14.6 6 14.7 NNE 22 39 12 21 1017.5 - 0.0
22/01:30pm 24.6 16.0 -13.4 7 14.1 NNE 28 44 15 24 1017.9 - 0.0
22/01:00pm 23.7 15.2 -12.5 8 13.5 NNE 28 46 15 25 1018.6 - 0.0
22/12:35pm 23.8 15.3 -12.4 8 13.6 NNE 28 46 15 25 1019.0 - 0.0
22/12:30pm 23.6 14.6 -14.2 7 13.7 NNE 30 46 16 25 1019.0 - 0.0
22/12:29pm 23.5 14.9 -12.6 8 13.4 NNE 28 46 15 25 1019.0 - 0.0
22/12:00pm 23.0 15.2 -13.0 8 13.2 NNE 24 35 13 19 1019.7 1017.2 0.0
22/11:30am 22.2 13.7 -12.1 9 12.7 NNE 28 43 15 23 1020.4 - 0.0
22/11:00am 21.5 13.0 -11.4 10 12.2 NNE 28 41 15 22 1020.8 - 0.0
22/10:30am 20.4 11.3 -9.9 12 11.5 NNE 32 44 17 24 1021.6 - 0.0
22/10:00am 19.6 11.2 -10.5 12 11.2 NNE 28 43 15 23 1022.0 - 0.0
22/09:30am 18.6 10.7 -9.4 14 10.5 NNE 26 44 14 24 1022.3 - 0.0
22/09:00am 18.8 10.9 -9.2 14 10.5 NNE 26 44 14 24 1022.5 1020.0 0.0
22/08:30am 17.5 9.7 -7.8 17 9.7 NNE 26 44 14 24 1022.5 - 0.0
22/08:00am 16.3 9.2 -8.0 18 9.1 NE 22 33 12 18 1022.4 - 0.0
22/07:30am 15.5 9.4 -8.0 19 8.8 NE 17 24 9 13 1022.5 - 0.0
22/07:00am 10.8 5.9 -7.4 27 6.5 E 11 13 6 7 1022.3 - 0.0
22/06:30am 9.7 4.0 -7.4 29 6.0 E 15 20 8 11 1022.3 - 0.0
22/06:00am 9.6 3.9 -7.1 30 5.9 E 15 17 8 9 1022.3 1019.8 0.0
22/05:30am 9.9 4.2 -7.3 29 6.1 E 15 17 8 9 1022.1 - 0.0
22/05:00am 10.5 4.8 -7.2 28 6.3 E 15 19 8 10 1022.0 - 0.0
22/04:30am 10.6 4.9 -7.6 27 6.4 E 15 17 8 9 1021.9 - 0.0
22/04:00am 10.7 5.0 -7.5 27 6.5 E 15 17 8 9 1022.0 - 0.0
22/03:30am 11.3 5.6 -8.0 25 6.8 ESE 15 17 8 9 1022.2 - 0.0
22/03:00am 10.9 5.5 -8.3 25 6.7 E 13 15 7 8 1022.5 1020.0 0.0
22/02:30am 11.4 5.6 -8.4 24 7.0 ESE 15 19 8 10 1022.7 - 0.0
22/02:00am 11.7 6.3 -8.7 23 7.1 ESE 13 15 7 8 1023.3 - 0.0
22/01:30am 11.8 6.0 -8.6 23 7.2 E 15 17 8 9 1023.6 - 0.0
22/01:00am 11.0 5.5 -9.3 23 6.9 E 13 15 7 8 1023.9 - 0.0
22/12:30am 11.9 6.4 -9.1 22 7.3 E 13 15 7 8 1024.2 - 0.0
22/12:00am 11.9 6.4 -9.1 22 7.3 E 13 15 7 8 1024.3 1021.9 0.0
 
Date/Time
CST
Temp
°C
App
Temp
°C
Dew
Point
Rel
Hum
%
Delta-T
°C
Wind Press
QNH
hPa
Press
MSL
hPa
Rain
since 9 am
mm
Dir
 
Spd
km/h
Gust
km/h
Spd
kts
Gust
kts
21/11:30pm 13.1 7.2 -9.3 20 7.9 E 15 17 8 9 1024.3 - 0.0
21/11:00pm 13.0 7.1 -10.1 19 8.0 E 15 17 8 9 1024.4 - 0.0
21/10:30pm 12.9 7.0 -10.1 19 7.9 E 15 15 8 8 1024.4 - 0.0
21/10:00pm 13.6 7.6 -11.0 17 8.4 E 15 17 8 9 1024.4 - 0.0
21/09:30pm 14.3 8.4 -10.4 17 8.6 E 15 17 8 9 1024.6 - 0.0
21/09:00pm 13.9 7.9 -10.7 17 8.4 E 15 17 8 9 1024.4 1022.0 0.0
21/08:30pm 14.0 8.0 -11.4 16 8.6 ENE 15 17 8 9 1024.2 - 0.0
21/08:00pm 14.7 9.1 -11.6 15 9.0 E 13 15 7 8 1023.9 - 0.0
21/07:30pm 15.8 10.5 -12.5 13 9.6 ENE 11 13 6 7 1023.6 - 0.0
21/07:00pm 18.3 12.1 -13.8 10 11.0 ENE 15 20 8 11 1023.2 - 0.0
21/06:30pm 19.9 12.8 -13.9 9 11.8 ENE 20 28 11 15 1022.8 - 0.0
21/06:00pm 21.1 13.6 -14.4 8 12.4 ENE 22 30 12 16 1022.5 1020.0 0.0
21/05:30pm 22.0 14.6 -12.3 9 12.6 E 22 30 12 16 1022.3 - 0.0
21/05:00pm 22.3 14.6 -10.7 10 12.6 E 24 33 13 18 1022.3 - 0.0
21/04:30pm 22.9 15.7 -9.1 11 12.6 E 22 32 12 17 1022.3 - 0.0
21/04:00pm 23.3 16.2 -8.8 11 12.8 ENE 22 39 12 21 1022.4 - 0.0
21/03:30pm 23.8 17.1 -8.4 11 13.0 ENE 20 32 11 17 1022.5 - 0.0
21/03:00pm 22.9 16.0 -6.0 14 12.1 ENE 22 35 12 19 1022.7 1020.2 0.0
21/02:30pm 22.8 15.9 -6.1 14 12.1 ENE 22 39 12 21 1023.2 - 0.0
21/02:00pm 23.0 16.2 -5.0 15 12.0 E 22 39 12 21 1023.4 - 0.0
21/01:30pm 22.8 15.8 -3.5 17 11.5 ESE 24 35 13 19 1023.9 - 0.0
21/01:00pm 22.3 16.2 -2.4 19 11.0 ENE 20 32 11 17 1024.6 - 0.0
21/12:45pm 22.2 14.6 -2.5 19 11.0 ENE 28 57 15 31 1024.9 - 0.0
21/12:30pm 21.9 14.8 -1.4 21 10.6 ENE 26 37 14 20 1025.2 - 0.0
21/12:00pm 21.9 15.2 -1.4 21 10.5 ENE 24 43 13 23 1025.9 1023.5 0.0
21/11:30am 21.3 14.7 -0.6 23 10.0 ENE 24 33 13 18 1026.2 - 0.0
21/11:00am 21.1 15.1 0.9 26 9.5 ENE 22 32 12 17 1026.5 - 0.0
21/10:30am 19.1 12.7 0.7 29 8.5 NE 24 37 13 20 1026.8 - 0.0
21/10:00am 18.3 11.4 0.0 29 8.3 ENE 26 39 14 21 1027.0 - 0.0
21/09:30am 17.7 11.0 1.2 33 7.6 ENE 26 35 14 19 1027.1 - 0.0
21/09:00am 16.9 9.8 1.4 35 7.1 ENE 28 35 15 19 1027.1 1024.7 0.0
21/08:30am 16.0 10.5 1.7 38 6.6 NE 20 30 11 16 1027.0 - 0.0
21/08:00am 14.8 9.3 1.7 41 6.0 NE 20 28 11 15 1026.8 - 0.0
21/07:30am 13.5 9.9 2.7 48 5.0 E 11 13 6 7 1026.4 - 0.0
21/07:00am 11.7 8.1 3.0 55 4.0 E 11 13 6 7 1026.0 - 0.0
21/06:30am 10.6 6.7 3.2 60 3.4 E 13 17 7 9 1025.6 - 0.0
21/06:00am 10.4 6.2 3.9 64 3.0 E 15 17 8 9 1025.1 1022.6 0.0
21/05:30am 11.0 7.0 4.9 66 2.9 E 15 17 8 9 1024.8 - 0.0
21/05:00am 11.0 7.1 5.5 69 2.6 E 15 17 8 9 1024.3 - 0.0
21/04:30am 10.9 8.1 5.2 68 2.7 E 9 11 5 6 1024.1 - 0.0
21/04:00am 11.7 8.3 6.0 68 2.8 ENE 13 17 7 9 1023.9 - 0.0
21/03:30am 12.0 9.1 6.7 70 2.6 E 11 15 6 8 1023.8 - 0.0
21/03:00am 12.0 9.2 6.9 71 2.5 E 11 13 6 7 1023.8 1021.3 0.0
21/02:30am 12.0 9.5 6.7 70 2.6 E 9 11 5 6 1023.9 - 0.0
21/02:00am 12.7 9.8 6.7 67 3.0 E 11 13 6 7 1024.1 - 0.0
21/01:30am 13.5 10.0 7.1 65 3.2 ENE 15 17 8 9 1024.0 - 0.0
21/01:00am 13.5 10.6 6.6 63 3.4 ENE 11 15 6 8 1024.0 - 0.0
21/12:30am 14.0 11.5 6.6 61 3.7 ENE 9 13 5 7 1023.9 - 0.0
21/12:00am 14.8 11.9 6.6 58 4.1 ENE 11 15 6 8 1023.9 1021.4 0.0
 
Date/Time
CST
Temp
°C
App
Temp
°C
Dew
Point
Rel
Hum
%
Delta-T
°C
Wind Press
QNH
hPa
Press
MSL
hPa
Rain
since 9 am
mm
Dir
 
Spd
km/h
Gust
km/h
Spd
kts
Gust
kts
20/11:30pm 15.8 12.1 6.5 54 4.7 ENE 15 22 8 12 1024.0 - 0.0
20/11:00pm 16.6 11.3 6.7 52 5.1 ENE 24 35 13 19 1023.9 - 0.0
20/10:30pm 17.2 11.4 6.4 49 5.5 E 26 35 14 19 1024.0 - 0.0
20/10:00pm 18.7 12.0 3.7 37 7.3 E 28 41 15 22 1023.7 - 0.0
20/09:30pm 18.9 14.1 2.7 34 7.8 ENE 17 22 9 12 1023.4 - 0.0
20/09:00pm 20.1 14.4 2.9 32 8.3 E 22 32 12 17 1023.3 1020.8 0.0
20/08:30pm 20.4 15.2 2.3 30 8.7 E 19 26 10 14 1022.7 - 0.0
20/08:00pm 21.1 15.9 2.4 29 9.1 E 19 24 10 13 1022.4 - 0.0
20/07:30pm 21.7 15.5 2.4 28 9.4 E 24 30 13 16 1022.1 - 0.0
20/07:00pm 22.1 16.3 2.2 27 9.7 E 22 32 12 17 1021.7 - 0.0
20/06:30pm 23.0 17.8 0.2 22 10.8 E 17 26 9 14 1020.9 - 0.0
20/06:00pm 24.1 19.2 -0.2 20 11.4 E 15 24 8 13 1020.6 1018.1 0.0
20/05:30pm 25.0 19.9 0.5 20 11.8 E 17 28 9 15 1020.4 - 0.0
20/05:00pm 25.1 20.3 -0.1 19 12.0 SE 15 22 8 12 1020.1 - 0.0
20/04:30pm 26.0 21.2 -0.1 18 12.5 ENE 15 24 8 13 1019.7 - 0.0
20/04:00pm 26.3 20.7 0.1 18 12.6 E 19 28 10 15 1019.6 - 0.0

Other Formats:

Comma delimited format used in spreadsheet applications
http://www.bom.gov.au/fwo/IDS60801/IDS60801.94474.axf

JavaScript Object Notation format (JSON) in row-major order
http://www.bom.gov.au/fwo/IDS60801/IDS60801.94474.json